Disclaimer

Please do not use the information listed here in-flight or in-navigation, as they are not provided to us by the airports but are provided by volunteers, so they might be outdated.

Search


Regions


Airport information page

Radio informations:
TEBESSA TWR - 118.1 MHz

Airport informations:
Latitude: 35° 25' 53.80" N
Longitude: 008° 07' 14.58" E
Elevation: 2661 feet - 811 meters
Operating hours: Remarks
Operating agency: Civil government, landing fees and diplomatic clearance may be required
Timezone: UTC+1 - Dates notified by NOTAM
Fuel: Jet A1, without icing nhibitor.

Unknown fuel type or whether there is any fuel.

Runway information:
11/29 - 9843 x 148 feet< - >3000 x 45 meters
12/30 - 7874 x 98 feet< - >2400 x 30 meters

Recent METARs:
DABS 131900Z 09006KT 9999 FEW033 SCT200 13/10 Q1028
DABS 131900Z 09006KT 9999 FEW033 SCT200 13/10 Q1028
DABS 132000Z 09006KT 9999 FEW033 12/09 Q1028

Airport on the map: